Incourt, Belgium
Current Conditions -  °F | °C
As of 3:25 PM on Monday 22 Dec 2014 (Local Time) from EBBE Reporting Station
Drizzle Drizzle  
Wind Chill: 50°   Ceiling: 900
Heat Index: 50°   Visibility: 2.1mi
Dew Point: 48°   Wind: 23mph
Humidity: 94%   Direction: 230°SW
Pressure: 30.12"   Gusts: NA
Location:  50.69°N, 4.8°E
Report Text: EBBE 221425Z 23020KT 3500 -DZ FEW006 SCT008 OVC009 10/09 Q1020 YLO GRN TEMPO YLO
Loading
Personal Weather Stations






























Interactive Weather Map New forecast layout! Learn more

10-Day Weather Forecast

Advertisements
Track Severe Weather on mobile